Time;durP1;ratioP1;P1;durP2;ratioP2;P2;SDS_P1;SDS_P2;PMS_P1;PMS_P2;Temp;Humidity;BMP_temperature;BMP_pressure;BME280_temperature;BME280_humidity;BME280_pressure;Samples;Min_cycle;Max_cycle;Signal;HPM_P1;HPM_P2
2022/09/17 00:00:08;;;;;;;1.20;0.40;;;19.70;93.90;;;;;;5034032;28;20029;-24
2022/09/17 00:02:34;;;;;;;0.73;0.50;;;19.70;94.00;;;;;;5034129;28;20056;-24
2022/09/17 00:04:59;;;;;;;0.85;0.30;;;19.70;93.90;;;;;;5033935;28;20053;-24
2022/09/17 00:07:25;;;;;;;1.08;0.40;;;19.70;94.10;;;;;;5034068;28;20041;-24
2022/09/17 00:09:51;;;;;;;1.17;0.40;;;19.70;94.00;;;;;;5034046;28;20025;-24
2022/09/17 00:12:16;;;;;;;3.58;0.50;;;19.70;94.00;;;;;;5033697;28;20112;-24
2022/09/17 00:14:42;;;;;;;0.82;0.40;;;19.70;94.00;;;;;;5033816;28;20071;-25
2022/09/17 00:17:08;;;;;;;1.48;0.30;;;19.60;94.00;;;;;;5058430;22;20025;-25
2022/09/17 00:19:34;;;;;;;0.80;0.35;;;19.70;94.00;;;;;;5051794;28;20458;-26
2022/09/17 00:21:59;;;;;;;1.15;0.40;;;19.70;94.00;;;;;;5053418;28;20035;-25
2022/09/17 00:24:25;;;;;;;0.65;0.45;;;19.70;94.00;;;;;;5053416;28;20021;-25
2022/09/17 00:26:50;;;;;;;2.42;0.40;;;19.60;94.00;;;;;;5053382;28;20036;-25
2022/09/17 00:29:16;;;;;;;0.30;0.20;;;19.60;94.00;;;;;;5053025;28;20116;-25
2022/09/17 00:31:42;;;;;;;0.90;0.30;;;19.60;94.00;;;;;;5053243;28;20024;-25
2022/09/17 00:34:08;;;;;;;0.90;0.30;;;19.60;94.00;;;;;;5053085;28;20036;-25
2022/09/17 00:36:35;;;;;;;3.33;0.50;;;19.60;94.00;;;;;;5053198;28;20028;-25
2022/09/17 00:39:02;;;;;;;0.82;0.20;;;19.60;94.00;;;;;;5052939;28;20105;-25
2022/09/17 00:41:31;;;;;;;0.45;0.30;;;19.60;94.00;;;;;;5052647;28;20021;-25
2022/09/17 00:44:00;;;;;;;0.75;0.30;;;19.60;94.00;;;;;;5053097;28;20025;-26
2022/09/17 00:46:32;;;;;;;0.75;0.30;;;19.60;94.00;;;;;;5052970;28;20017;-25
2022/09/17 00:49:20;;;;;;;0.80;0.30;;;19.60;94.00;;;;;;5052712;28;20048;-25
2022/09/17 00:52:03;;;;;;;0.90;0.30;;;19.60;94.10;;;;;;5052050;28;20033;-25
2022/09/17 00:54:29;;;;;;;0.40;0.10;;;19.60;94.00;;;;;;5052888;28;20032;-25
2022/09/17 00:56:56;;;;;;;0.52;0.40;;;19.60;94.10;;;;;;5052672;28;20056;-25
2022/09/17 00:59:23;;;;;;;0.90;0.20;;;19.60;94.10;;;;;;5052595;28;20470;-25
2022/09/17 01:01:49;;;;;;;0.63;0.38;;;19.50;94.00;;;;;;5052604;28;20035;-25
2022/09/17 01:04:20;;;;;;;0.52;0.25;;;19.50;94.10;;;;;;5052697;28;20029;-25
2022/09/17 01:06:55;;;;;;;0.25;0.17;;;19.50;94.10;;;;;;5052664;28;20021;-25
2022/09/17 01:09:48;;;;;;;0.68;0.30;;;19.50;94.10;;;;;;5052272;28;20074;-26
2022/09/17 01:12:39;;;;;;;1.90;0.20;;;19.50;94.00;;;;;;5052635;28;20025;-25
2022/09/17 01:15:31;;;;;;;0.45;0.20;;;19.50;94.10;;;;;;5024062;28;20563;-25
2022/09/17 01:18:09;;;;;;;1.45;0.43;;;19.50;94.10;;;;;;5052154;28;20036;-26
2022/09/17 01:21:03;;;;;;;0.80;0.30;;;19.50;94.10;;;;;;5052230;28;20025;-25
2022/09/17 01:24:01;;;;;;;0.75;0.38;;;19.50;94.10;;;;;;5052365;28;20025;-25
2022/09/17 01:26:45;;;;;;;1.95;0.38;;;19.50;94.00;;;;;;5052311;28;20120;-25
2022/09/17 01:29:52;;;;;;;0.63;0.30;;;19.50;94.10;;;;;;5051955;28;20021;-25
2022/09/17 01:32:37;;;;;;;0.57;0.30;;;19.50;94.10;;;;;;5051414;28;20048;-25
2022/09/17 01:35:14;;;;;;;0.70;0.30;;;19.50;94.10;;;;;;5052207;28;20501;-25
2022/09/17 01:38:04;;;;;;;0.70;0.40;;;19.50;94.10;;;;;;5052292;28;20021;-25
2022/09/17 01:40:39;;;;;;;0.68;0.20;;;19.50;94.10;;;;;;5051970;28;20387;-25
2022/09/17 01:43:19;;;;;;;1.55;0.40;;;19.50;94.10;;;;;;5052089;28;20091;-26
2022/09/17 01:45:50;;;;;;;0.90;0.40;;;19.40;94.10;;;;;;5052037;28;20433;-25
2022/09/17 01:48:22;;;;;;;1.00;0.43;;;19.40;94.10;;;;;;5051830;28;20478;-25
2022/09/17 01:50:56;;;;;;;0.98;0.30;;;19.40;94.10;;;;;;5051780;28;20474;-25
2022/09/17 01:53:27;;;;;;;0.65;0.22;;;19.40;94.00;;;;;;5051381;28;20025;-25
2022/09/17 01:55:57;;;;;;;0.73;0.30;;;19.50;94.10;;;;;;5051964;28;20028;-25
2022/09/17 01:58:32;;;;;;;1.00;0.45;;;19.40;94.00;;;;;;5051728;28;20577;-25
2022/09/17 02:01:02;;;;;;;0.55;0.30;;;19.50;94.00;;;;;;5051743;28;20058;-26
2022/09/17 02:03:41;;;;;;;1.17;0.40;;;19.40;94.00;;;;;;5051752;28;20036;-25
2022/09/17 02:06:11;;;;;;;0.52;0.28;;;19.40;94.00;;;;;;5052124;28;20025;-25
2022/09/17 02:08:50;;;;;;;2.25;0.32;;;19.40;94.00;;;;;;5051592;28;20053;-26
2022/09/17 02:11:18;;;;;;;1.00;0.55;;;19.40;94.00;;;;;;5051683;28;20021;-26
2022/09/17 02:13:55;;;;;;;1.00;0.40;;;19.40;94.00;;;;;;5051768;28;20025;-24
2022/09/17 02:16:25;;;;;;;1.73;0.50;;;19.40;93.90;;;;;;5051656;28;20024;-26
2022/09/17 02:19:36;;;;;;;0.43;0.30;;;19.40;94.00;;;;;;5051388;28;20037;-25
2022/09/17 02:22:24;;;;;;;0.88;0.43;;;19.40;93.90;;;;;;5030878;28;20048;-25
2022/09/17 02:25:23;;;;;;;2.13;0.47;;;19.40;93.90;;;;;;5051662;28;20032;-25
2022/09/17 02:27:59;;;;;;;1.17;0.35;;;19.40;93.90;;;;;;5051395;28;20087;-25
2022/09/17 02:30:25;;;;;;;0.90;0.30;;;19.40;93.90;;;;;;5051293;28;20029;-25
2022/09/17 02:32:53;;;;;;;0.60;0.32;;;19.40;93.90;;;;;;5051426;28;20024;-26
2022/09/17 02:35:19;;;;;;;0.70;0.32;;;19.40;93.90;;;;;;5051523;28;20036;-25
2022/09/17 02:37:44;;;;;;;1.42;0.50;;;19.40;93.90;;;;;;5051438;28;20017;-26
2022/09/17 02:40:13;;;;;;;0.68;0.40;;;19.40;93.90;;;;;;5051293;28;20075;-25
2022/09/17 02:43:06;;;;;;;1.08;0.28;;;19.40;93.90;;;;;;5051464;28;20098;-25
2022/09/17 02:45:45;;;;;;;4.80;0.60;;;19.40;93.90;;;;;;5051435;28;20036;-26
2022/09/17 02:48:33;;;;;;;3.50;0.50;;;19.40;93.90;;;;;;5051332;28;20113;-25
2022/09/17 02:51:32;;;;;;;1.73;0.60;;;19.40;93.90;;;;;;5051243;28;20028;-26
2022/09/17 02:54:12;;;;;;;0.77;0.30;;;19.30;93.80;;;;;;5051088;28;20108;-25
2022/09/17 02:57:04;;;;;;;0.50;0.30;;;19.30;93.90;;;;;;5051468;28;20087;-25
2022/09/17 02:59:54;;;;;;;1.30;0.30;;;19.40;93.90;;;;;;5051286;28;20099;-25
2022/09/17 03:02:42;;;;;;;1.60;0.43;;;19.40;93.90;;;;;;5051271;28;20056;-25
2022/09/17 03:05:08;;;;;;;1.58;0.40;;;19.40;93.90;;;;;;5052925;28;20067;-25
2022/09/17 03:07:35;;;;;;;1.35;0.32;;;19.30;93.90;;;;;;5054807;28;20024;-25
2022/09/17 03:10:01;;;;;;;0.88;0.28;;;19.30;93.80;;;;;;5054569;28;20040;-25
2022/09/17 03:12:26;;;;;;;1.15;0.40;;;19.30;93.90;;;;;;5054682;28;20468;-25
2022/09/17 03:14:52;;;;;;;0.73;0.30;;;19.30;93.90;;;;;;5054929;28;20021;-25
2022/09/17 03:17:17;;;;;;;1.05;0.32;;;19.30;93.90;;;;;;5054483;28;20436;-25
2022/09/17 03:19:43;;;;;;;1.45;0.55;;;19.30;93.90;;;;;;5054567;28;20119;-25
2022/09/17 03:22:09;;;;;;;1.98;0.50;;;19.30;93.80;;;;;;5054510;28;20021;-25
2022/09/17 03:24:34;;;;;;;1.20;0.40;;;19.30;93.80;;;;;;5054551;28;20509;-25
2022/09/17 03:27:00;;;;;;;1.95;0.50;;;19.30;93.80;;;;;;5054364;28;20034;-24
2022/09/17 03:29:26;;;;;;;1.73;0.40;;;19.30;93.80;;;;;;5054355;28;20091;-25
2022/09/17 03:31:51;;;;;;;1.17;0.50;;;19.30;93.80;;;;;;5054472;28;20159;-25
2022/09/17 03:34:17;;;;;;;3.13;0.45;;;19.30;93.80;;;;;;5054716;28;20378;-25
2022/09/17 03:36:43;;;;;;;1.63;0.50;;;19.30;94.00;;;;;;5054384;28;20028;-25
2022/09/17 03:39:08;;;;;;;1.88;0.60;;;19.30;93.80;;;;;;5036192;28;20053;-25
2022/09/17 03:41:34;;;;;;;1.38;0.50;;;19.30;93.80;;;;;;5054102;28;20017;-26
2022/09/17 03:44:00;;;;;;;2.13;0.60;;;19.30;93.80;;;;;;5054165;28;20459;-25
2022/09/17 03:46:25;;;;;;;1.35;0.50;;;19.30;93.80;;;;;;5054177;28;20024;-25
2022/09/17 03:48:51;;;;;;;1.95;0.50;;;19.30;93.80;;;;;;5053907;28;20096;-25
2022/09/17 03:51:16;;;;;;;0.80;0.45;;;19.30;93.80;;;;;;5053916;28;20367;-24
2022/09/17 03:53:42;;;;;;;1.27;0.50;;;19.30;93.80;;;;;;5054048;28;20021;-25
2022/09/17 03:56:08;;;;;;;1.95;0.50;;;19.20;93.70;;;;;;5053838;28;20024;-25
2022/09/17 03:58:34;;;;;;;0.98;0.30;;;19.30;93.80;;;;;;5053716;28;20615;-25
2022/09/17 04:01:02;;;;;;;1.90;0.70;;;19.20;93.70;;;;;;5053804;28;20029;-26
2022/09/17 04:03:28;;;;;;;1.77;0.60;;;19.30;93.80;;;;;;5053871;28;20389;-25
2022/09/17 04:05:54;;;;;;;1.02;0.52;;;19.20;93.70;;;;;;5053845;28;20032;-25
2022/09/17 04:08:20;;;;;;;1.67;0.60;;;19.20;93.70;;;;;;5053633;28;20025;-25
2022/09/17 04:10:46;;;;;;;1.45;0.50;;;19.20;93.70;;;;;;5053376;28;20501;-25
2022/09/17 04:13:14;;;;;;;1.75;0.50;;;19.20;94.10;;;;;;5053695;28;20021;-25
2022/09/17 04:15:40;;;;;;;1.42;0.47;;;19.20;93.70;;;;;;5053434;28;20036;-25
2022/09/17 04:18:06;;;;;;;1.85;0.60;;;19.20;93.70;;;;;;5052859;28;20036;-24
2022/09/17 04:20:31;;;;;;;1.33;0.60;;;19.20;93.70;;;;;;5053344;28;20410;-25
2022/09/17 04:22:57;;;;;;;1.20;0.30;;;19.20;93.70;;;;;;5053460;28;20032;-25
2022/09/17 04:25:23;;;;;;;2.35;0.68;;;19.20;93.70;;;;;;5053284;28;20500;-24
2022/09/17 04:27:49;;;;;;;1.73;0.52;;;19.20;93.70;;;;;;5053288;28;20029;-25
2022/09/17 04:30:15;;;;;;;2.47;0.60;;;19.20;93.70;;;;;;5053085;28;20541;-25
2022/09/17 04:32:42;;;;;;;0.60;0.40;;;19.10;93.70;;;;;;5053301;28;20075;-24
2022/09/17 04:35:09;;;;;;;3.05;0.60;;;19.20;93.70;;;;;;5053126;28;20036;-25
2022/09/17 04:37:34;;;;;;;1.67;0.60;;;19.20;93.60;;;;;;5053207;28;20029;-25
2022/09/17 04:40:00;;;;;;;1.52;0.47;;;19.20;93.60;;;;;;5052809;28;20051;-25
2022/09/17 04:42:26;;;;;;;2.00;0.30;;;19.20;93.60;;;;;;5053059;28;20025;-25
2022/09/17 04:44:51;;;;;;;1.67;0.70;;;19.20;93.60;;;;;;5053051;28;20086;-25
2022/09/17 04:47:17;;;;;;;1.65;0.43;;;19.20;93.60;;;;;;5052902;28;20028;-25
2022/09/17 04:49:43;;;;;;;1.80;0.52;;;19.10;93.60;;;;;;5052711;28;20029;-25
2022/09/17 04:52:08;;;;;;;1.73;0.40;;;19.20;93.60;;;;;;5052829;28;20032;-24
2022/09/17 04:54:34;;;;;;;1.98;0.52;;;19.20;93.60;;;;;;5052634;28;20381;-25
2022/09/17 04:57:00;;;;;;;1.25;0.40;;;19.10;93.50;;;;;;5052792;28;20017;-25
2022/09/17 04:59:25;;;;;;;2.15;0.50;;;19.10;93.50;;;;;;5052539;28;20032;-26
2022/09/17 05:01:51;;;;;;;0.88;0.50;;;19.10;93.50;;;;;;5052785;28;20013;-25
2022/09/17 05:04:17;;;;;;;3.15;0.75;;;19.10;93.50;;;;;;5052714;28;20017;-26
2022/09/17 05:06:42;;;;;;;2.95;0.90;;;19.10;93.50;;;;;;5052691;28;20415;-26
2022/09/17 05:09:08;;;;;;;3.70;0.85;;;19.10;93.50;;;;;;5052550;28;20020;-25
2022/09/17 05:11:34;;;;;;;1.48;0.50;;;19.10;93.50;;;;;;5052392;28;20108;-25
2022/09/17 05:13:59;;;;;;;2.13;0.50;;;19.10;93.50;;;;;;5052697;28;20391;-25
2022/09/17 05:16:26;;;;;;;2.00;0.57;;;19.10;93.50;;;;;;5052343;28;20456;-25
2022/09/17 05:18:52;;;;;;;2.50;0.73;;;19.10;93.50;;;;;;5052076;28;20052;-25
2022/09/17 05:21:19;;;;;;;3.67;0.52;;;19.10;93.50;;;;;;5052280;28;20548;-24
2022/09/17 05:23:45;;;;;;;2.53;0.70;;;19.10;93.50;;;;;;5052184;28;20047;-25
2022/09/17 05:26:11;;;;;;;1.58;0.60;;;19.10;93.40;;;;;;5052248;28;20021;-25
2022/09/17 05:28:36;;;;;;;1.20;0.57;;;19.10;93.40;;;;;;5052023;28;20068;-24
2022/09/17 05:31:02;;;;;;;1.98;0.50;;;19.10;93.50;;;;;;5051969;28;20036;-25
2022/09/17 05:33:28;;;;;;;2.58;0.57;;;19.10;93.40;;;;;;5052161;28;20025;-26
2022/09/17 05:35:54;;;;;;;1.50;0.60;;;19.00;93.40;;;;;;5052145;28;20021;-25
2022/09/17 05:38:20;;;;;;;1.25;0.40;;;19.00;93.40;;;;;;5051836;28;20021;-25
2022/09/17 05:40:46;;;;;;;3.72;0.90;;;19.00;93.40;;;;;;5051930;28;20493;-25
2022/09/17 05:43:11;;;;;;;3.88;0.70;;;19.00;93.40;;;;;;5052051;28;20371;-26
2022/09/17 05:45:37;;;;;;;2.83;0.60;;;19.00;93.40;;;;;;5052020;28;20083;-25
2022/09/17 05:48:05;;;;;;;2.63;0.70;;;19.00;93.40;;;;;;5051853;28;20083;-25
2022/09/17 05:50:32;;;;;;;1.55;0.50;;;19.00;93.40;;;;;;5051706;28;20507;-24
2022/09/17 05:53:04;;;;;;;2.70;0.70;;;19.00;93.40;;;;;;5051860;28;20017;-25
2022/09/17 05:55:30;;;;;;;3.05;0.75;;;19.00;93.40;;;;;;5051921;28;20470;-25
2022/09/17 05:57:56;;;;;;;2.20;0.60;;;19.00;93.40;;;;;;5051859;28;20021;-24
2022/09/17 06:00:21;;;;;;;1.88;0.65;;;19.00;93.40;;;;;;5051743;28;20025;-26
2022/09/17 06:02:53;;;;;;;1.58;0.50;;;19.00;93.60;;;;;;5051803;28;20583;-26
2022/09/17 06:05:19;;;;;;;2.40;0.90;;;19.00;93.40;;;;;;5051721;28;20021;-25
2022/09/17 06:07:45;;;;;;;3.20;0.60;;;19.00;93.40;;;;;;5051729;28;20482;-25
2022/09/17 06:10:10;;;;;;;2.55;0.60;;;19.00;93.40;;;;;;5051511;28;20060;-25
2022/09/17 06:12:36;;;;;;;1.77;0.73;;;19.00;93.40;;;;;;5051791;28;20083;-24
2022/09/17 06:15:03;;;;;;;1.67;0.50;;;19.00;93.40;;;;;;5052128;28;20024;-26
2022/09/17 06:17:33;;;;;;;2.75;0.68;;;19.00;93.40;;;;;;5051970;28;20509;-26
2022/09/17 06:19:58;;;;;;;2.50;0.70;;;19.00;93.40;;;;;;5051440;28;20505;-27
2022/09/17 06:22:24;;;;;;;1.15;0.50;;;19.00;93.30;;;;;;5051676;28;20025;-26
2022/09/17 06:24:50;;;;;;;1.17;0.52;;;19.00;93.30;;;;;;5051822;28;20025;-25
2022/09/17 06:27:15;;;;;;;1.23;0.43;;;19.00;93.30;;;;;;5051626;28;20021;-26
2022/09/17 06:29:41;;;;;;;1.58;0.75;;;19.00;93.30;;;;;;5051410;28;20107;-25
2022/09/17 06:32:11;;;;;;;4.03;0.60;;;19.00;93.30;;;;;;5051593;28;20367;-25
2022/09/17 06:34:38;;;;;;;1.20;0.50;;;19.00;93.30;;;;;;5051678;28;20048;-25
2022/09/17 06:37:04;;;;;;;3.38;0.77;;;19.00;93.30;;;;;;5051496;28;20432;-26
2022/09/17 06:39:29;;;;;;;2.33;0.68;;;19.00;93.30;;;;;;5051998;28;20017;-26
2022/09/17 06:41:55;;;;;;;2.10;0.68;;;19.00;93.30;;;;;;5055405;28;20017;-25
2022/09/17 06:44:20;;;;;;;2.53;0.77;;;19.00;93.30;;;;;;5055371;28;20017;-25
2022/09/17 06:46:49;;;;;;;1.60;0.65;;;19.00;93.30;;;;;;5055334;28;20029;-24
2022/09/17 06:49:16;;;;;;;2.25;0.73;;;19.00;93.30;;;;;;5055111;28;20052;-25
2022/09/17 06:51:42;;;;;;;1.75;0.57;;;19.00;93.30;;;;;;5055269;28;20550;-27
2022/09/17 06:54:08;;;;;;;2.10;0.90;;;19.00;93.30;;;;;;5055369;28;20467;-26
2022/09/17 06:56:34;;;;;;;3.13;0.60;;;19.00;93.30;;;;;;5055253;28;20029;-25
2022/09/17 06:59:00;;;;;;;1.90;0.50;;;19.00;93.30;;;;;;5054931;28;20028;-25
2022/09/17 07:01:25;;;;;;;3.97;0.93;;;19.00;93.30;;;;;;5054942;28;20017;-27
2022/09/17 07:03:51;;;;;;;0.98;0.50;;;18.90;93.30;;;;;;5055246;28;20083;-24
2022/09/17 07:06:16;;;;;;;1.42;0.52;;;19.00;93.30;;;;;;5055151;28;20104;-25
2022/09/17 07:08:42;;;;;;;1.33;0.50;;;19.00;93.30;;;;;;5054768;28;20025;-25
2022/09/17 07:11:08;;;;;;;1.85;0.50;;;19.00;93.40;;;;;;5054953;28;20029;-25
2022/09/17 07:13:33;;;;;;;1.40;0.60;;;18.90;93.30;;;;;;5055006;28;20056;-26
2022/09/17 07:16:01;;;;;;;3.10;0.60;;;18.90;93.40;;;;;;5054766;28;20466;-24
2022/09/17 07:18:27;;;;;;;4.43;0.82;;;18.90;93.40;;;;;;5054555;28;20504;-26
2022/09/17 07:20:57;;;;;;;2.88;0.90;;;18.90;93.40;;;;;;5054642;28;20025;-27
2022/09/17 07:23:24;;;;;;;2.05;0.70;;;18.90;93.40;;;;;;5055169;28;20407;-27
2022/09/17 07:25:51;;;;;;;3.10;0.70;;;18.90;93.40;;;;;;5054781;28;20107;-26
2022/09/17 07:28:17;;;;;;;3.80;0.77;;;18.90;93.40;;;;;;5054793;28;20545;-27
2022/09/17 07:30:42;;;;;;;1.33;0.57;;;18.90;93.40;;;;;;5054288;28;20120;-25
2022/09/17 07:33:08;;;;;;;1.95;0.70;;;18.90;93.40;;;;;;5054758;28;20032;-25
2022/09/17 07:35:34;;;;;;;1.92;0.70;;;18.90;93.40;;;;;;5054587;28;20024;-24
2022/09/17 07:37:59;;;;;;;1.67;0.50;;;18.90;93.50;;;;;;5054467;28;20021;-25
2022/09/17 07:40:25;;;;;;;2.92;1.00;;;18.90;93.50;;;;;;5054357;28;20133;-24
2022/09/17 07:42:50;;;;;;;3.05;0.77;;;18.90;93.40;;;;;;5054427;28;20029;-24
2022/09/17 07:45:16;;;;;;;3.25;1.27;;;18.90;93.00;;;;;;5054115;28;20078;-25
2022/09/17 07:47:43;;;;;;;1.92;0.70;;;18.60;91.50;;;;;;5054098;28;20116;-26
2022/09/17 07:50:09;;;;;;;5.53;1.00;;;18.50;92.00;;;;;;5053717;28;20047;-24
2022/09/17 07:52:34;;;;;;;4.25;0.85;;;18.50;92.20;;;;;;5052892;28;20025;-24
2022/09/17 07:55:00;;;;;;;5.75;1.10;;;18.50;92.40;;;;;;5054041;28;20021;-25
2022/09/17 07:57:26;;;;;;;2.95;0.70;;;18.60;92.50;;;;;;5053925;28;20068;-24
2022/09/17 07:59:51;;;;;;;3.20;0.90;;;18.60;92.60;;;;;;5053633;28;20108;-24
2022/09/17 08:02:17;;;;;;;3.75;0.80;;;18.60;92.60;;;;;;5053873;28;20033;-24
2022/09/17 08:04:42;;;;;;;2.47;0.70;;;18.70;92.60;;;;;;5053918;28;20029;-25
2022/09/17 08:07:12;;;;;;;3.83;0.77;;;18.70;92.70;;;;;;5053729;28;20090;-25
2022/09/17 08:09:38;;;;;;;2.40;0.82;;;18.70;92.80;;;;;;5053635;28;20025;-25
2022/09/17 08:12:04;;;;;;;3.15;0.80;;;18.70;92.80;;;;;;5053688;28;20021;-25
2022/09/17 08:14:29;;;;;;;2.85;0.80;;;18.80;92.80;;;;;;5053468;28;20021;-24
2022/09/17 08:16:55;;;;;;;2.90;0.70;;;18.70;92.80;;;;;;5053614;28;20013;-25
2022/09/17 08:19:21;;;;;;;1.63;0.70;;;18.70;92.90;;;;;;5053236;28;20028;-25
2022/09/17 08:21:46;;;;;;;1.10;0.70;;;18.80;92.90;;;;;;5053489;28;20650;-26
2022/09/17 08:24:12;;;;;;;3.35;0.80;;;18.80;92.90;;;;;;5053472;28;20063;-24
2022/09/17 08:26:39;;;;;;;1.25;0.65;;;18.80;92.90;;;;;;5053494;28;20108;-25
2022/09/17 08:29:06;;;;;;;2.08;0.70;;;18.90;93.00;;;;;;5053005;28;20021;-24
2022/09/17 08:31:32;;;;;;;1.80;0.85;;;18.80;93.00;;;;;;5053264;28;20112;-25
2022/09/17 08:33:58;;;;;;;3.55;1.10;;;18.90;93.00;;;;;;5053332;28;20049;-26
2022/09/17 08:36:25;;;;;;;4.50;1.02;;;18.70;91.30;;;;;;5053200;28;20025;-24
2022/09/17 08:38:54;;;;;;;4.93;1.25;;;18.40;91.70;;;;;;5053067;28;20474;-25
2022/09/17 08:41:32;;;;;;;5.47;1.00;;;18.30;92.00;;;;;;5053116;28;20482;-25
2022/09/17 08:44:01;;;;;;;5.93;1.00;;;18.30;92.10;;;;;;5053329;28;20043;-25
2022/09/17 08:46:31;;;;;;;4.38;1.08;;;18.40;92.20;;;;;;5053082;28;20033;-25
2022/09/17 08:49:11;;;;;;;4.05;0.90;;;18.50;92.30;;;;;;5052794;28;20029;-25
2022/09/17 08:51:57;;;;;;;3.90;1.15;;;18.50;92.40;;;;;;5052870;28;20021;-24
2022/09/17 08:54:48;;;;;;;3.42;0.93;;;18.60;92.40;;;;;;5053059;28;20024;-25
2022/09/17 08:57:51;;;;;;;3.92;1.00;;;18.60;92.40;;;;;;5052815;28;20097;-26
2022/09/17 09:00:21;;;;;;;3.30;1.00;;;18.70;92.40;;;;;;5052500;28;20036;-25
2022/09/17 09:02:58;;;;;;;3.95;1.15;;;18.70;92.40;;;;;;5052487;28;20024;-26
2022/09/17 09:05:44;;;;;;;2.85;0.80;;;18.80;92.40;;;;;;5052744;28;20025;-26
2022/09/17 09:08:20;;;;;;;2.17;0.88;;;18.80;92.40;;;;;;5052136;28;20568;-26
2022/09/17 09:10:56;;;;;;;2.63;0.98;;;18.80;92.40;;;;;;5052264;28;20028;-24
2022/09/17 09:13:27;;;;;;;4.03;1.40;;;18.80;92.40;;;;;;5052551;28;20021;-25
2022/09/17 09:16:13;;;;;;;5.22;1.00;;;18.90;92.50;;;;;;5052625;28;20021;-26
2022/09/17 09:18:41;;;;;;;4.10;1.30;;;18.90;92.50;;;;;;5052151;28;20040;-26
2022/09/17 09:21:33;;;;;;;3.95;1.40;;;18.90;92.50;;;;;;5052194;28;20025;-24
2022/09/17 09:24:25;;;;;;;4.07;1.15;;;18.90;92.50;;;;;;5052384;28;20025;-25
2022/09/17 09:27:13;;;;;;;5.35;1.30;;;18.80;92.50;;;;;;5052399;28;20033;-26
2022/09/17 09:30:02;;;;;;;5.65;1.25;;;18.80;92.60;;;;;;5052099;28;20033;-25
2022/09/17 09:32:58;;;;;;;6.63;1.50;;;18.80;92.60;;;;;;5039588;28;20044;-25
2022/09/17 09:35:31;;;;;;;5.78;1.27;;;18.80;92.70;;;;;;5052235;28;20112;-25
2022/09/17 09:38:08;;;;;;;3.40;1.30;;;18.80;92.70;;;;;;5051968;28;20404;-26
2022/09/17 09:40:41;;;;;;;3.58;1.33;;;18.80;92.70;;;;;;5051984;28;20074;-25
2022/09/17 09:43:37;;;;;;;4.70;1.48;;;18.80;92.70;;;;;;5052481;28;20025;-25
2022/09/17 09:46:09;;;;;;;4.70;1.20;;;18.80;92.70;;;;;;5051978;28;20527;-25
2022/09/17 09:48:53;;;;;;;5.90;1.77;;;18.80;92.70;;;;;;5051812;28;20040;-24
2022/09/17 09:51:43;;;;;;;2.97;1.20;;;18.90;92.70;;;;;;5051892;28;20031;-24
2022/09/17 09:54:44;;;;;;;5.05;1.60;;;18.90;92.80;;;;;;5051935;28;20021;-25
2022/09/17 09:57:13;;;;;;;4.60;1.30;;;18.80;92.70;;;;;;5052016;28;20032;-25
2022/09/17 09:59:42;;;;;;;5.07;1.67;;;18.90;92.80;;;;;;5051732;28;20070;-25
2022/09/17 10:02:09;;;;;;;4.50;1.40;;;18.90;92.80;;;;;;5051770;28;20049;-24
2022/09/17 10:04:34;;;;;;;3.80;1.30;;;18.90;92.80;;;;;;5051837;28;20021;-24
2022/09/17 10:07:04;;;;;;;2.85;1.20;;;18.90;92.80;;;;;;5051714;28;20081;-25
2022/09/17 10:09:31;;;;;;;4.00;1.40;;;18.90;92.80;;;;;;5051895;28;20025;-24
2022/09/17 10:12:15;;;;;;;3.38;1.25;;;18.90;92.80;;;;;;5033881;28;20271;-26
2022/09/17 10:14:43;;;;;;;4.73;1.57;;;18.90;92.80;;;;;;5052797;28;20045;-25
2022/09/17 10:17:19;;;;;;;3.55;1.30;;;18.90;92.80;;;;;;5055660;28;20032;-25
2022/09/17 10:20:10;;;;;;;3.80;1.40;;;18.90;92.80;;;;;;5055688;28;20445;-25
2022/09/17 10:22:38;;;;;;;2.95;1.20;;;18.90;92.80;;;;;;5055835;28;20410;-26
2022/09/17 10:25:17;;;;;;;3.97;1.48;;;18.90;92.80;;;;;;5055831;28;20025;-24
2022/09/17 10:27:44;;;;;;;2.08;1.05;;;18.90;92.80;;;;;;5055646;28;20082;-25
2022/09/17 10:30:16;;;;;;;3.25;1.20;;;18.90;92.80;;;;;;5055603;28;20033;-25
2022/09/17 10:32:42;;;;;;;4.22;1.20;;;19.00;92.80;;;;;;5055789;28;20024;-24
2022/09/17 10:35:14;;;;;;;3.40;1.10;;;19.00;92.80;;;;;;5055585;28;20428;-24
2022/09/17 10:37:47;;;;;;;4.30;1.20;;;19.00;92.70;;;;;;5055625;28;20029;-25
2022/09/17 10:40:32;;;;;;;2.53;1.20;;;19.10;92.60;;;;;;5055240;28;20422;-25
2022/09/17 10:43:27;;;;;;;5.75;1.52;;;19.20;92.40;;;;;;5055069;28;20136;-24
2022/09/17 10:45:58;;;;;;;3.38;1.10;;;19.30;92.30;;;;;;5034399;28;20037;-25
2022/09/17 10:48:29;;;;;;;2.70;0.95;;;19.40;92.30;;;;;;5055229;28;20528;-25
2022/09/17 10:50:56;;;;;;;4.07;1.25;;;19.50;92.30;;;;;;5054918;28;20033;-25
2022/09/17 10:53:24;;;;;;;2.80;1.08;;;19.50;92.20;;;;;;5055161;28;20023;-26
2022/09/17 10:56:21;;;;;;;3.08;1.02;;;19.50;92.10;;;;;;5055448;28;20013;-25
2022/09/17 10:59:00;;;;;;;3.15;0.90;;;19.60;92.10;;;;;;5055045;28;20017;-25
2022/09/17 11:01:54;;;;;;;3.47;0.98;;;19.60;92.00;;;;;;5054954;28;20475;-26
2022/09/17 11:04:22;;;;;;;2.30;0.80;;;19.60;92.00;;;;;;5055062;28;20033;-26
2022/09/17 11:07:13;;;;;;;3.60;1.38;;;19.60;92.00;;;;;;5054908;28;20078;-25
2022/09/17 11:10:02;;;;;;;2.70;0.95;;;19.70;91.90;;;;;;5054648;28;20077;-25
2022/09/17 11:12:58;;;;;;;3.13;0.90;;;19.70;91.90;;;;;;5054950;28;20029;-25
2022/09/17 11:15:39;;;;;;;5.60;1.20;;;19.70;91.90;;;;;;5054877;28;20032;-25
2022/09/17 11:18:26;;;;;;;3.78;1.00;;;19.60;92.00;;;;;;5054575;28;20048;-26
2022/09/17 11:21:12;;;;;;;1.73;0.90;;;19.60;92.10;;;;;;5054528;28;20024;-27
2022/09/17 11:23:50;;;;;;;2.42;1.10;;;19.60;92.10;;;;;;5054672;28;20028;-25
2022/09/17 11:26:47;;;;;;;2.83;0.93;;;19.50;92.10;;;;;;5054322;28;20035;-25
2022/09/17 11:29:38;;;;;;;2.88;1.20;;;19.50;92.20;;;;;;5054182;28;20033;-26
2022/09/17 11:32:28;;;;;;;3.75;1.00;;;19.40;92.20;;;;;;5054383;28;20029;-25
2022/09/17 11:35:17;;;;;;;2.33;0.98;;;19.40;92.30;;;;;;5036583;28;20049;-26
2022/09/17 11:38:27;;;;;;;1.70;0.70;;;19.40;92.30;;;;;;5054334;28;20108;-25
2022/09/17 11:41:05;;;;;;;3.45;1.15;;;19.40;92.20;;;;;;5028595;28;20517;-25
2022/09/17 11:43:36;;;;;;;3.42;0.93;;;19.40;92.10;;;;;;5054202;28;20017;-26
2022/09/17 11:46:06;;;;;;;2.42;1.30;;;19.50;92.10;;;;;;5054270;28;20135;-25
2022/09/17 11:48:45;;;;;;;2.28;0.90;;;19.50;92.10;;;;;;5053944;28;20029;-25
2022/09/17 11:51:26;;;;;;;2.65;0.85;;;19.60;92.00;;;;;;5053759;28;20032;-25
2022/09/17 11:54:02;;;;;;;3.90;0.70;;;19.60;92.00;;;;;;5054213;28;20025;-25
2022/09/17 11:56:33;;;;;;;1.95;0.80;;;19.70;92.00;;;;;;5054192;28;20092;-24
2022/09/17 11:59:17;;;;;;;3.05;0.80;;;19.70;91.90;;;;;;5053839;28;20071;-25
2022/09/17 12:01:56;;;;;;;2.33;0.80;;;19.80;91.80;;;;;;5053823;28;20292;-26
2022/09/17 12:04:48;;;;;;;2.55;0.85;;;19.80;91.80;;;;;;5054094;28;20079;-25
2022/09/17 12:07:51;;;;;;;2.60;0.80;;;19.90;91.70;;;;;;5053719;28;20025;-25
2022/09/17 12:10:34;;;;;;;1.75;0.93;;;19.90;91.70;;;;;;5053446;28;20029;-25
2022/09/17 12:13:28;;;;;;;2.15;0.90;;;19.90;91.70;;;;;;5053670;28;20040;-25
2022/09/17 12:16:32;;;;;;;1.67;0.60;;;19.90;91.60;;;;;;5042236;28;20036;-25
2022/09/17 12:19:11;;;;;;;4.50;1.00;;;19.90;91.70;;;;;;5054228;28;20032;-24
2022/09/17 12:21:45;;;;;;;1.95;0.80;;;19.80;91.70;;;;;;5053628;28;20025;-24
2022/09/17 12:24:21;;;;;;;1.67;0.80;;;19.80;91.80;;;;;;5035783;28;20124;-25
2022/09/17 12:27:09;;;;;;;4.75;0.75;;;19.80;91.90;;;;;;5053666;28;20505;-25
2022/09/17 12:30:09;;;;;;;3.75;0.77;;;19.80;91.90;;;;;;5053305;28;20029;-25
2022/09/17 12:32:45;;;;;;;3.30;1.17;;;19.80;91.80;;;;;;5053500;28;20021;-24
2022/09/17 12:35:41;;;;;;;3.20;0.98;;;19.80;91.80;;;;;;5053356;28;20021;-25
2022/09/17 12:38:40;;;;;;;2.08;0.82;;;19.80;91.80;;;;;;5052622;28;20017;-25
2022/09/17 12:41:14;;;;;;;2.80;0.93;;;19.70;91.80;;;;;;5053087;28;20446;-25
2022/09/17 12:43:40;;;;;;;;;;;19.70;91.90;;;;;;5053666;28;20550;-25
2022/09/17 12:46:24;;;;;;;2.78;0.88;;;19.60;91.90;;;;;;5053257;28;19932;-24
2022/09/17 12:49:14;;;;;;;2.53;0.70;;;19.60;92.00;;;;;;5052869;28;20378;-25
2022/09/17 12:51:56;;;;;;;3.28;1.00;;;19.60;92.20;;;;;;5052760;28;20032;-25
2022/09/17 12:54:36;;;;;;;1.55;0.80;;;19.60;92.10;;;;;;5052892;28;20021;-24
2022/09/17 12:57:08;;;;;;;1.58;0.73;;;19.50;92.00;;;;;;5053158;28;20049;-25
2022/09/17 12:59:38;;;;;;;1.83;0.70;;;19.50;92.20;;;;;;5052815;28;20028;-25
2022/09/17 13:02:37;;;;;;;2.50;0.73;;;19.50;92.30;;;;;;5052537;28;20108;-24
2022/09/17 13:05:14;;;;;;;2.17;0.80;;;19.40;92.40;;;;;;5052141;28;20128;-24
2022/09/17 13:07:43;;;;;;;2.85;0.88;;;19.40;92.50;;;;;;5053074;28;20032;-25
2022/09/17 13:10:27;;;;;;;3.33;1.00;;;19.40;92.60;;;;;;5052294;28;20029;-25
2022/09/17 13:13:25;;;;;;;2.08;0.80;;;19.30;92.60;;;;;;5052611;28;20079;-25
2022/09/17 13:15:59;;;;;;;1.98;0.70;;;19.30;92.70;;;;;;5006006;28;20048;-25
2022/09/17 13:18:30;;;;;;;1.77;0.70;;;19.30;92.80;;;;;;5052214;28;20025;-25